Nearby METAR Reports

 

KOAK - Oakland, California, USA
Distance from station: SSW 6mi, 9km
Updated: Sun, 16-Dec-2018 4:53am PST
Mostly cloudy
Mostly cloudy
 Wind from SE
Wind: SE 10 mph , 17 km/h
Temperature: 55°F , 13°C
Dew Point: 48°F , 9°C
Humidity: 77%
Barometer: 30.05 inHg , 1017.6 hPa
Clouds: Mostly cloudy
Visibility: 10 miles , 16 km
Cloud details: Few Clouds 1400 ft
Mostly cloudy 7000 ft
2018/12/16 12:53 KOAK 161253Z 14009KT 10SM FEW014 BKN070 13/09 A3005 RMK AO2 SLP177 T01330089
KHWD - Hayward, California, USA
Distance from station: SSE 8mi, 12km
Updated: Sun, 16-Dec-2018 4:54am PST
Mostly cloudy
Mostly cloudy
 Wind from S
Wind: S 8 mph , 13 km/h
Temperature: 57°F , 14°C
Dew Point: 46°F , 8°C
Humidity: 67%
Barometer: 30.05 inHg , 1017.6 hPa
Clouds: Mostly cloudy
Visibility: 10 miles , 16 km
Cloud details: Mostly cloudy 7000 ft
2018/12/16 12:54 KHWD 161254Z AUTO 19007KT 10SM BKN070 14/08 A3005 RMK AO2 SLP186 T01390078
KSFO - San Francisco, California, USA
Distance from station: SW 15mi, 25km
Updated: Sun, 16-Dec-2018 4:56am PST
Overcast
Overcast
 Wind from E
Wind: E 10 mph , 17 km/h
Temperature: 55°F , 13°C
Dew Point: 50°F , 10°C
Humidity: 82%
Barometer: 30.03 inHg , 1016.9 hPa
Clouds: Overcast
Visibility: 10 miles , 16 km
Cloud details: Overcast 7000 ft
2018/12/16 12:56 KSFO 161256Z 10009KT 10SM OVC070 13/10 A3003 RMK AO2 SLP169 T01280100
 
KCCR - Concord, California, USA
Distance from station: NNE 17mi, 27km
Updated: Sun, 16-Dec-2018 4:53am PST
Mist, Partly cloudy
Mist, Partly cloudy
 Wind from NW
Wind: NW 5 mph , 7 km/h
Temperature: 48°F , 9°C
Wind Chill: 46°F , 8°C
Dew Point: 45°F , 7°C
Humidity: 87%
Barometer: 30.06 inHg , 1017.9 hPa
Summary: Mist
Clouds: Partly cloudy
Visibility: 2 1/2 miles , 2 km
Cloud details: Partly cloudy 7000 ft
2018/12/16 12:53 KCCR 161253Z AUTO 32004KT 2 1/2SM BR SCT070 09/07 A3006 RMK AO2 SLP164 T00890072
KSQL - San Carlos Airpo, California, USA
Distance from station: SSW 18mi, 29km
Updated: Sun, 16-Dec-2018 5:35am PST
Partly cloudy
Partly cloudy
 Wind from ENE
Wind: ENE 5 mph , 7 km/h
Temperature: 55°F , 13°C
Dew Point: 50°F , 10°C
Humidity: 82%
Barometer: 30.04 inHg , 1017.3 hPa
Clouds: Partly cloudy
Visibility: 10 miles , 16 km
Cloud details: Partly cloudy 7000 ft
2018/12/16 13:35 KSQL 161335Z AUTO 06004KT 10SM SCT070 13/10 A3004 RMK AO2
KLVK - Livermore, California, USA
Distance from station: ESE 20mi, 31km
Updated: Sun, 16-Dec-2018 4:53am PST
Clear
Clear
 Wind from E
Wind: E 6 mph , 9 km/h
Temperature: 45°F , 7°C
Wind Chill: 42°F , 6°C
Dew Point: 41°F , 5°C
Humidity: 87%
Barometer: 30.03 inHg , 1016.9 hPa
Clouds: Clear
Visibility: 7 miles , 11 km
2018/12/16 12:53 KLVK 161253Z AUTO 08005KT 7SM CLR 07/05 A3003 RMK AO2 SLP171 T00670050
 
KPAO - Palo Alto, California, USA
Distance from station: S 21mi, 34km
Updated: Sat, 15-Dec-2018 8:47pm PST
NOT Current
Mostly cloudy
Mostly cloudy
 Wind from calm
Wind: Calm
Temperature: 57°F , 14°C
Dew Point: 48°F , 9°C
Humidity: 72%
Barometer: 30.07 inHg , 1018.3 hPa
Clouds: Mostly cloudy
Visibility: 10 miles , 16 km
Cloud details: Mostly cloudy 8000 ft
2018/12/16 04:47 KPAO 160447Z 00000KT 10SM BKN080 14/09 A3007 RMK LAST
KHAF - Half Moon Bay, California, USA
Distance from station: SW 25mi, 41km
Updated: Sun, 16-Dec-2018 5:40am PST
Overcast
Overcast
 Wind from SSE
Wind: SSE 8 mph , 13 km/h
Temperature: 57°F , 14°C
Dew Point: 54°F , 12°C
Humidity: 88%
Barometer: 30.05 inHg , 1017.6 hPa
Clouds: Overcast
Visibility: 7 miles , 11 km
Cloud details: Overcast 1900 ft
2018/12/16 13:40 KHAF 161340Z AUTO 16007KT 7SM OVC019 14/12 A3005 RMK AO2
KNUQ - Moffett Nas/Mtn, California, USA
Distance from station: SSE 26mi, 42km
Updated: Sun, 16-Dec-2018 4:56am PST
Clear
Clear
 Wind from SE
Wind: SE 7 mph , 11 km/h
Temperature: 55°F , 13°C
Dew Point: 46°F , 8°C
Humidity: 72%
Barometer: 30.06 inHg , 1017.9 hPa
Clouds: Clear
Visibility: 10 miles , 16 km
2018/12/16 12:56 KNUQ 161256Z 13006KT 10SM CLR 13/08 A3006 RMK AO2 SLP182 T01330083 $
 
KAPC - Napa, California, USA
Distance from station: NNW 30mi, 49km
Updated: Sun, 16-Dec-2018 4:54am PST
Overcast
Overcast
 Wind from E
Wind: E 8 mph , 13 km/h
Temperature: 54°F , 12°C
Dew Point: 48°F , 9°C
Humidity: 82%
Barometer: 30.05 inHg , 1017.6 hPa
Clouds: Overcast
Visibility: 7 miles , 11 km
Cloud details: Overcast 5500 ft
2018/12/16 12:54 KAPC 161254Z AUTO 08007KT 7SM OVC055 12/09 A3005 RMK AO2 SLP165 T01170089
KSJC - San Jose, California, USA
Distance from station: SSE 31mi, 50km
Updated: Sun, 16-Dec-2018 4:53am PST
Clear
Clear
 Wind from S
Wind: S 10 mph , 17 km/h
Temperature: 54°F , 12°C
Dew Point: 46°F , 8°C
Humidity: 77%
Barometer: 30.05 inHg , 1017.6 hPa
Clouds: Clear
Visibility: 10 miles , 16 km
2018/12/16 12:53 KSJC 161253Z AUTO 18009KT 10SM CLR 12/08 A3005 RMK AO2 SLP176 T01170083
KDVO - Novato/Gnoss Fld, California, USA
Distance from station: NW 34mi, 54km
Updated: Sun, 16-Dec-2018 5:35am PST
Overcast
Overcast
 Wind from SSE
Wind: SSE 8 mph , 13 km/h
Temperature: 55°F , 13°C
Dew Point: 52°F , 11°C
Humidity: 88%
Barometer: 30.04 inHg , 1017.3 hPa
Clouds: Overcast
Visibility: 10 miles , 16 km
Cloud details: Overcast 1700 ft
2018/12/16 13:35 KDVO 161335Z AUTO 15007KT 10SM OVC017 13/11 A3004 RMK AO2
 
KRHV - San Jose/Reid, California, USA
Distance from station: SSE 37mi, 59km
Updated: Sat, 15-Dec-2018 9:50pm PST
NOT Current
Partly cloudy
Partly cloudy
 Wind from calm
Wind: Calm
Temperature: 54°F , 12°C
Dew Point: 46°F , 8°C
Humidity: 77%
Barometer: 30.06 inHg , 1017.9 hPa
Clouds: Partly cloudy
Visibility: 10 miles , 16 km
Cloud details: Partly cloudy 10000 ft
2018/12/16 05:50 KRHV 160550Z 00000KT 10SM SCT100 12/08 A3006 RMK LAST
KSUU - Travis Afb/Fairf, California, USA
Distance from station: NNE 37mi, 59km
Updated: Sun, 16-Dec-2018 5:43am PST
Mist, Overcast
Mist, Overcast
 Wind from calm
Wind: Calm
Temperature: 45°F , 7°C
Dew Point: 43°F , 6°C
Humidity: 93%
Barometer: 30.06 inHg , 1017.9 hPa
Summary: Mist
Clouds: Overcast
Visibility: 3 miles , 5 km
Cloud details: Partly cloudy 8000 ft
Overcast 18000 ft
2018/12/16 13:43 KSUU 161343Z AUTO 00000KT 3SM BR SCT080 OVC180 07/06 A3006 RMK AO2 SLP186 $
KO69 - Petaluma, California, USA
Distance from station: NW 41mi, 66km
Updated: Sun, 16-Dec-2018 5:35am PST
Overcast
Overcast
 Wind from E
Wind: E 5 mph , 7 km/h
Temperature: 55°F , 13°C
Dew Point: 54°F , 12°C
Humidity: 94%
Barometer: 30.04 inHg , 1017.3 hPa
Clouds: Overcast
Visibility: 10 miles , 16 km
Cloud details: Overcast 1800 ft
2018/12/16 13:35 KO69 161335Z AUTO 10004KT 10SM OVC018 13/12 A3004 RMK A01
 
KVCB - Vacaville, California, USA
Distance from station: NNE 44mi, 71km
Updated: Sun, 16-Dec-2018 4:53am PST
Mist, Mostly cloudy
Mist, Mostly cloudy
 Wind from WSW
Wind: WSW 5 mph , 7 km/h
Temperature: 46°F , 8°C
Wind Chill: 44°F , 7°C
Dew Point: 45°F , 7°C
Humidity: 93%
Barometer: 30.07 inHg , 1018.3 hPa
Summary: Mist
Clouds: Mostly cloudy
Visibility: 3 miles , 5 km
Cloud details: Mostly cloudy 6000 ft
2018/12/16 12:53 KVCB 161253Z AUTO 24004KT 3SM BR BKN060 08/07 A3007 RMK AO2 SLP181 T00780072 $